sensor_id;sensor_type;location;lat;lon;timestamp;temperature;humidity
15184;DHT22;7693;49.266;7.104;2023-12-29T04:58:10;8.60;99.90
15184;DHT22;7693;49.266;7.104;2023-12-29T05:00:35;8.60;99.90
15184;DHT22;7693;49.266;7.104;2023-12-29T05:03:01;8.70;99.90
15184;DHT22;7693;49.266;7.104;2023-12-29T05:05:26;8.70;99.90
15184;DHT22;7693;49.266;7.104;2023-12-29T05:07:52;8.70;99.90
15184;DHT22;7693;49.266;7.104;2023-12-29T05:10:18;8.70;99.90
15184;DHT22;7693;49.266;7.104;2023-12-29T05:12:43;8.70;99.90
15184;DHT22;7693;49.266;7.104;2023-12-29T05:15:09;8.80;99.90
15184;DHT22;7693;49.266;7.104;2023-12-29T05:17:35;8.80;99.90
15184;DHT22;7693;49.266;7.104;2023-12-29T05:20:00;8.80;99.90
15184;DHT22;7693;49.266;7.104;2023-12-29T05:22:26;8.80;99.90
15184;DHT22;7693;49.266;7.104;2023-12-29T05:24:52;8.80;99.90
15184;DHT22;7693;49.266;7.104;2023-12-29T05:27:17;8.80;99.90
15184;DHT22;7693;49.266;7.104;2023-12-29T05:29:43;8.80;99.90
15184;DHT22;7693;49.266;7.104;2023-12-29T05:32:08;8.90;99.90
15184;DHT22;7693;49.266;7.104;2023-12-29T05:34:34;8.90;99.90
15184;DHT22;7693;49.266;7.104;2023-12-29T05:37:00;8.90;99.90
15184;DHT22;7693;49.266;7.104;2023-12-29T05:39:26;8.90;99.90
15184;DHT22;7693;49.266;7.104;2023-12-29T05:41:52;8.90;99.90
15184;DHT22;7693;49.266;7.104;2023-12-29T05:44:17;8.90;99.90
15184;DHT22;7693;49.266;7.104;2023-12-29T05:46:46;8.90;99.90
15184;DHT22;7693;49.266;7.104;2023-12-29T05:49:12;8.90;99.90
15184;DHT22;7693;49.266;7.104;2023-12-29T05:51:38;8.90;99.90
15184;DHT22;7693;49.266;7.104;2023-12-29T05:54:04;8.90;99.90
15184;DHT22;7693;49.266;7.104;2023-12-29T05:56:29;8.90;99.90
15184;DHT22;7693;49.266;7.104;2023-12-29T05:58:55;8.90;99.90
15184;DHT22;7693;49.266;7.104;2023-12-29T06:01:21;8.90;99.90
15184;DHT22;7693;49.266;7.104;2023-12-29T06:03:46;8.90;99.90
15184;DHT22;7693;49.266;7.104;2023-12-29T06:06:12;8.90;99.90
15184;DHT22;7693;49.266;7.104;2023-12-29T06:08:37;8.90;99.90
15184;DHT22;7693;49.266;7.104;2023-12-29T06:11:03;8.90;99.90
15184;DHT22;7693;49.266;7.104;2023-12-29T06:13:29;8.90;99.90
15184;DHT22;7693;49.266;7.104;2023-12-29T06:15:55;8.90;99.90
15184;DHT22;7693;49.266;7.104;2023-12-29T06:18:21;8.90;99.90
15184;DHT22;7693;49.266;7.104;2023-12-29T06:20:46;8.90;99.90
15184;DHT22;7693;49.266;7.104;2023-12-29T06:23:12;8.90;99.90
15184;DHT22;7693;49.266;7.104;2023-12-29T06:25:38;8.90;99.90
15184;DHT22;7693;49.266;7.104;2023-12-29T06:28:07;8.90;99.90
15184;DHT22;7693;49.266;7.104;2023-12-29T06:30:32;8.90;99.90
15184;DHT22;7693;49.266;7.104;2023-12-29T06:32:58;8.90;99.90
15184;DHT22;7693;49.266;7.104;2023-12-29T06:35:23;8.90;99.90
15184;DHT22;7693;49.266;7.104;2023-12-29T06:37:49;9.00;99.90
15184;DHT22;7693;49.266;7.104;2023-12-29T06:40:16;9.00;99.90
15184;DHT22;7693;49.266;7.104;2023-12-29T06:42:42;9.00;99.90
15184;DHT22;7693;49.266;7.104;2023-12-29T06:45:08;9.00;99.90
15184;DHT22;7693;49.266;7.104;2023-12-29T06:47:34;9.00;99.90
15184;DHT22;7693;49.266;7.104;2023-12-29T06:49:59;9.00;99.90
15184;DHT22;7693;49.266;7.104;2023-12-29T06:52:25;9.00;99.90
15184;DHT22;7693;49.266;7.104;2023-12-29T06:54:52;9.00;99.90
15184;DHT22;7693;49.266;7.104;2023-12-29T06:57:17;9.00;99.90
15184;DHT22;7693;49.266;7.104;2023-12-29T06:59:43;9.00;99.90
15184;DHT22;7693;49.266;7.104;2023-12-29T07:02:08;9.00;99.90
15184;DHT22;7693;49.266;7.104;2023-12-29T07:04:34;9.00;99.90
15184;DHT22;7693;49.266;7.104;2023-12-29T07:07:00;9.10;99.90
15184;DHT22;7693;49.266;7.104;2023-12-29T07:09:27;9.10;99.90
15184;DHT22;7693;49.266;7.104;2023-12-29T07:11:53;9.00;99.90
15184;DHT22;7693;49.266;7.104;2023-12-29T07:14:18;9.00;99.90
15184;DHT22;7693;49.266;7.104;2023-12-29T07:16:44;9.10;99.90
15184;DHT22;7693;49.266;7.104;2023-12-29T07:19:09;9.10;99.90
15184;DHT22;7693;49.266;7.104;2023-12-29T07:21:35;9.10;99.90
15184;DHT22;7693;49.266;7.104;2023-12-29T07:24:01;9.10;99.90
15184;DHT22;7693;49.266;7.104;2023-12-29T07:26:26;9.10;99.90
15184;DHT22;7693;49.266;7.104;2023-12-29T07:28:52;9.10;99.90
15184;DHT22;7693;49.266;7.104;2023-12-29T07:31:20;9.10;99.90
15184;DHT22;7693;49.266;7.104;2023-12-29T07:33:46;9.00;99.90
15184;DHT22;7693;49.266;7.104;2023-12-29T07:36:12;9.10;99.90
15184;DHT22;7693;49.266;7.104;2023-12-29T07:38:38;9.00;99.90
15184;DHT22;7693;49.266;7.104;2023-12-29T07:41:04;9.10;99.90
15184;DHT22;7693;49.266;7.104;2023-12-29T07:43:30;9.10;99.90
15184;DHT22;7693;49.266;7.104;2023-12-29T07:45:56;9.10;99.90
15184;DHT22;7693;49.266;7.104;2023-12-29T07:48:21;9.10;99.90
15184;DHT22;7693;49.266;7.104;2023-12-29T07:50:47;9.10;99.90
15184;DHT22;7693;49.266;7.104;2023-12-29T07:53:13;9.20;99.90
15184;DHT22;7693;49.266;7.104;2023-12-29T07:55:38;9.20;99.90
15184;DHT22;7693;49.266;7.104;2023-12-29T07:58:05;9.20;99.90
15184;DHT22;7693;49.266;7.104;2023-12-29T08:00:31;9.20;99.90
15184;DHT22;7693;49.266;7.104;2023-12-29T08:02:56;9.20;99.90
15184;DHT22;7693;49.266;7.104;2023-12-29T08:05:24;9.20;99.90
15184;DHT22;7693;49.266;7.104;2023-12-29T08:07:50;9.20;99.90
15184;DHT22;7693;49.266;7.104;2023-12-29T08:10:16;9.20;99.90
15184;DHT22;7693;49.266;7.104;2023-12-29T08:12:41;9.20;99.90
15184;DHT22;7693;49.266;7.104;2023-12-29T08:15:07;9.30;99.90
15184;DHT22;7693;49.266;7.104;2023-12-29T08:17:33;9.30;99.90
15184;DHT22;7693;49.266;7.104;2023-12-29T08:19:59;9.30;99.90
15184;DHT22;7693;49.266;7.104;2023-12-29T08:22:24;9.30;99.90
15184;DHT22;7693;49.266;7.104;2023-12-29T08:24:50;9.30;99.90
15184;DHT22;7693;49.266;7.104;2023-12-29T08:27:23;9.30;99.90
15184;DHT22;7693;49.266;7.104;2023-12-29T08:29:49;9.30;99.90
15184;DHT22;7693;49.266;7.104;2023-12-29T08:32:15;9.30;99.90
15184;DHT22;7693;49.266;7.104;2023-12-29T08:34:40;9.30;99.90
15184;DHT22;7693;49.266;7.104;2023-12-29T08:37:06;9.40;99.90
15184;DHT22;7693;49.266;7.104;2023-12-29T08:39:31;9.40;99.90
15184;DHT22;7693;49.266;7.104;2023-12-29T08:41:57;9.40;99.90
15184;DHT22;7693;49.266;7.104;2023-12-29T08:44:23;9.40;99.90
15184;DHT22;7693;49.266;7.104;2023-12-29T08:46:48;9.40;99.90
15184;DHT22;7693;49.266;7.104;2023-12-29T08:49:14;9.50;99.90
15184;DHT22;7693;49.266;7.104;2023-12-29T08:51:40;9.50;99.90
15184;DHT22;7693;49.266;7.104;2023-12-29T08:54:05;9.50;99.90
15184;DHT22;7693;49.266;7.104;2023-12-29T08:56:32;9.50;99.90
15184;DHT22;7693;49.266;7.104;2023-12-29T08:58:58;9.50;99.90
15184;DHT22;7693;49.266;7.104;2023-12-29T09:01:23;9.50;99.90
15184;DHT22;7693;49.266;7.104;2023-12-29T09:03:49;9.60;99.90
15184;DHT22;7693;49.266;7.104;2023-12-29T09:06:14;9.60;99.90
15184;DHT22;7693;49.266;7.104;2023-12-29T09:08:41;9.60;99.90
15184;DHT22;7693;49.266;7.104;2023-12-29T09:11:06;9.60;99.90
15184;DHT22;7693;49.266;7.104;2023-12-29T09:13:32;9.50;99.90
15184;DHT22;7693;49.266;7.104;2023-12-29T09:15:58;9.60;99.90
15184;DHT22;7693;49.266;7.104;2023-12-29T09:18:24;9.60;99.90
15184;DHT22;7693;49.266;7.104;2023-12-29T09:20:50;9.60;99.90
15184;DHT22;7693;49.266;7.104;2023-12-29T09:23:16;9.60;99.90
15184;DHT22;7693;49.266;7.104;2023-12-29T09:25:42;9.60;99.90
15184;DHT22;7693;49.266;7.104;2023-12-29T09:28:07;9.60;99.90
15184;DHT22;7693;49.266;7.104;2023-12-29T09:30:33;9.60;99.90
15184;DHT22;7693;49.266;7.104;2023-12-29T09:32:58;9.60;99.90
15184;DHT22;7693;49.266;7.104;2023-12-29T09:35:24;9.60;99.90
15184;DHT22;7693;49.266;7.104;2023-12-29T09:37:50;9.60;99.90
15184;DHT22;7693;49.266;7.104;2023-12-29T09:40:16;9.60;99.90
15184;DHT22;7693;49.266;7.104;2023-12-29T09:42:45;9.60;99.90
15184;DHT22;7693;49.266;7.104;2023-12-29T09:45:12;9.60;99.90
15184;DHT22;7693;49.266;7.104;2023-12-29T09:47:42;9.70;99.90
15184;DHT22;7693;49.266;7.104;2023-12-29T09:50:12;9.60;99.90
15184;DHT22;7693;49.266;7.104;2023-12-29T09:52:41;9.60;99.90
15184;DHT22;7693;49.266;7.104;2023-12-29T09:55:09;9.60;99.90
15184;DHT22;7693;49.266;7.104;2023-12-29T09:57:38;9.70;99.90
15184;DHT22;7693;49.266;7.104;2023-12-29T10:00:05;9.70;99.90
15184;DHT22;7693;49.266;7.104;2023-12-29T10:02:31;9.70;99.90
15184;DHT22;7693;49.266;7.104;2023-12-29T10:04:59;9.70;99.90
15184;DHT22;7693;49.266;7.104;2023-12-29T10:07:27;9.80;99.90
15184;DHT22;7693;49.266;7.104;2023-12-29T10:09:56;9.80;99.90
15184;DHT22;7693;49.266;7.104;2023-12-29T10:12:23;9.80;99.90
15184;DHT22;7693;49.266;7.104;2023-12-29T10:23:11;9.90;99.90
15184;DHT22;7693;49.266;7.104;2023-12-29T10:25:39;10.00;99.90
15184;DHT22;7693;49.266;7.104;2023-12-29T10:28:06;10.00;99.90
15184;DHT22;7693;49.266;7.104;2023-12-29T10:30:32;10.00;99.90
15184;DHT22;7693;49.266;7.104;2023-12-29T10:32:58;10.10;99.90
15184;DHT22;7693;49.266;7.104;2023-12-29T10:35:26;10.10;99.90
15184;DHT22;7693;49.266;7.104;2023-12-29T10:37:52;10.10;99.90
15184;DHT22;7693;49.266;7.104;2023-12-29T10:40:18;10.10;99.90
15184;DHT22;7693;49.266;7.104;2023-12-29T10:42:54;10.10;99.90
15184;DHT22;7693;49.266;7.104;2023-12-29T10:45:21;10.10;99.90
15184;DHT22;7693;49.266;7.104;2023-12-29T10:47:48;10.10;99.90
15184;DHT22;7693;49.266;7.104;2023-12-29T10:50:13;10.10;99.90
15184;DHT22;7693;49.266;7.104;2023-12-29T10:52:39;10.10;99.90
15184;DHT22;7693;49.266;7.104;2023-12-29T10:55:10;10.10;99.90
15184;DHT22;7693;49.266;7.104;2023-12-29T10:57:39;10.10;99.90
15184;DHT22;7693;49.266;7.104;2023-12-29T13:24:53;9.80;99.90
15184;DHT22;7693;49.266;7.104;2023-12-29T13:27:20;9.80;99.90
15184;DHT22;7693;49.266;7.104;2023-12-29T13:29:47;9.80;99.90
15184;DHT22;7693;49.266;7.104;2023-12-29T13:32:23;9.90;99.90
15184;DHT22;7693;49.266;7.104;2023-12-29T13:42:57;9.90;99.90
15184;DHT22;7693;49.266;7.104;2023-12-29T13:45:26;10.00;99.90
15184;DHT22;7693;49.266;7.104;2023-12-29T13:47:53;9.90;99.90
15184;DHT22;7693;49.266;7.104;2023-12-29T13:50:19;9.90;99.90
15184;DHT22;7693;49.266;7.104;2023-12-29T13:52:45;9.90;99.90
15184;DHT22;7693;49.266;7.104;2023-12-29T13:55:10;9.90;99.90
15184;DHT22;7693;49.266;7.104;2023-12-29T13:57:36;10.00;99.90
15184;DHT22;7693;49.266;7.104;2023-12-29T14:03:11;9.90;99.90
15184;DHT22;7693;49.266;7.104;2023-12-29T14:05:55;10.00;99.90
15184;DHT22;7693;49.266;7.104;2023-12-29T14:08:39;10.00;99.90
15184;DHT22;7693;49.266;7.104;2023-12-29T14:11:08;10.00;99.90
15184;DHT22;7693;49.266;7.104;2023-12-29T14:13:34;9.90;99.90
15184;DHT22;7693;49.266;7.104;2023-12-29T14:16:00;10.00;99.90
15184;DHT22;7693;49.266;7.104;2023-12-29T14:24:11;9.90;99.90
15184;DHT22;7693;49.266;7.104;2023-12-29T14:26:57;9.90;99.90
15184;DHT22;7693;49.266;7.104;2023-12-29T14:29:25;9.90;99.90
15184;DHT22;7693;49.266;7.104;2023-12-29T14:31:51;9.90;99.90
15184;DHT22;7693;49.266;7.104;2023-12-29T14:34:17;9.90;99.90
15184;DHT22;7693;49.266;7.104;2023-12-29T14:36:44;9.90;99.90
15184;DHT22;7693;49.266;7.104;2023-12-29T14:39:11;9.90;99.90
15184;DHT22;7693;49.266;7.104;2023-12-29T14:41:37;9.90;99.90
15184;DHT22;7693;49.266;7.104;2023-12-29T14:44:03;9.90;99.90
15184;DHT22;7693;49.266;7.104;2023-12-29T14:46:28;9.90;99.90
15184;DHT22;7693;49.266;7.104;2023-12-29T14:48:57;9.90;99.90
15184;DHT22;7693;49.266;7.104;2023-12-29T14:51:23;9.90;99.90
15184;DHT22;7693;49.266;7.104;2023-12-29T14:53:50;9.90;99.90
15184;DHT22;7693;49.266;7.104;2023-12-29T14:56:16;9.90;99.90
15184;DHT22;7693;49.266;7.104;2023-12-29T14:58:42;9.90;99.90
15184;DHT22;7693;49.266;7.104;2023-12-29T15:01:08;9.90;99.90
15184;DHT22;7693;49.266;7.104;2023-12-29T15:03:35;9.90;99.90
15184;DHT22;7693;49.266;7.104;2023-12-29T15:06:01;9.90;99.90
15184;DHT22;7693;49.266;7.104;2023-12-29T15:08:26;9.90;99.90
15184;DHT22;7693;49.266;7.104;2023-12-29T15:10:57;9.90;99.90
15184;DHT22;7693;49.266;7.104;2023-12-29T15:13:23;9.90;99.90
15184;DHT22;7693;49.266;7.104;2023-12-29T15:15:50;9.90;99.90
15184;DHT22;7693;49.266;7.104;2023-12-29T15:18:16;9.90;99.90
15184;DHT22;7693;49.266;7.104;2023-12-29T15:20:42;9.90;99.90
15184;DHT22;7693;49.266;7.104;2023-12-29T15:23:08;9.90;99.90
15184;DHT22;7693;49.266;7.104;2023-12-29T15:25:34;9.90;99.90
15184;DHT22;7693;49.266;7.104;2023-12-29T15:27:59;9.90;99.90
15184;DHT22;7693;49.266;7.104;2023-12-29T15:30:25;9.90;99.90
15184;DHT22;7693;49.266;7.104;2023-12-29T15:32:51;9.90;99.90
15184;DHT22;7693;49.266;7.104;2023-12-29T15:35:16;9.90;99.90
15184;DHT22;7693;49.266;7.104;2023-12-29T15:37:42;9.90;99.90
15184;DHT22;7693;49.266;7.104;2023-12-29T15:40:08;9.90;99.90
15184;DHT22;7693;49.266;7.104;2023-12-29T15:42:34;9.80;99.90
15184;DHT22;7693;49.266;7.104;2023-12-29T15:44:59;9.80;99.90
15184;DHT22;7693;49.266;7.104;2023-12-29T15:47:25;9.80;99.90
15184;DHT22;7693;49.266;7.104;2023-12-29T15:49:51;9.80;99.90
15184;DHT22;7693;49.266;7.104;2023-12-29T15:52:16;9.80;99.90
15184;DHT22;7693;49.266;7.104;2023-12-29T15:54:42;9.80;99.90
15184;DHT22;7693;49.266;7.104;2023-12-29T15:57:08;9.80;99.90
15184;DHT22;7693;49.266;7.104;2023-12-29T15:59:34;9.80;99.90
15184;DHT22;7693;49.266;7.104;2023-12-29T16:02:00;9.70;99.90
15184;DHT22;7693;49.266;7.104;2023-12-29T16:04:26;9.80;99.90
15184;DHT22;7693;49.266;7.104;2023-12-29T16:06:54;9.70;99.90
15184;DHT22;7693;49.266;7.104;2023-12-29T16:09:20;9.80;99.90
15184;DHT22;7693;49.266;7.104;2023-12-29T16:11:46;9.80;99.90
15184;DHT22;7693;49.266;7.104;2023-12-29T16:14:12;9.80;99.90
15184;DHT22;7693;49.266;7.104;2023-12-29T16:16:40;9.70;99.90
15184;DHT22;7693;49.266;7.104;2023-12-29T16:19:06;9.80;99.90
15184;DHT22;7693;49.266;7.104;2023-12-29T16:21:36;9.80;99.90
15184;DHT22;7693;49.266;7.104;2023-12-29T16:24:02;9.80;99.90
15184;DHT22;7693;49.266;7.104;2023-12-29T16:26:28;9.70;99.90
15184;DHT22;7693;49.266;7.104;2023-12-29T16:28:54;9.70;99.90
15184;DHT22;7693;49.266;7.104;2023-12-29T16:31:20;9.70;99.90
15184;DHT22;7693;49.266;7.104;2023-12-29T16:33:46;9.70;99.90
15184;DHT22;7693;49.266;7.104;2023-12-29T16:36:13;9.70;99.90
15184;DHT22;7693;49.266;7.104;2023-12-29T16:38:46;9.80;99.90
15184;DHT22;7693;49.266;7.104;2023-12-29T16:41:13;9.70;99.90
15184;DHT22;7693;49.266;7.104;2023-12-29T16:43:39;9.80;99.90
15184;DHT22;7693;49.266;7.104;2023-12-29T16:46:05;9.70;99.90
15184;DHT22;7693;49.266;7.104;2023-12-29T16:48:30;9.70;99.90
15184;DHT22;7693;49.266;7.104;2023-12-29T16:50:56;9.80;99.90
15184;DHT22;7693;49.266;7.104;2023-12-29T16:53:22;9.70;99.90
15184;DHT22;7693;49.266;7.104;2023-12-29T16:55:50;9.70;99.90
15184;DHT22;7693;49.266;7.104;2023-12-29T16:58:17;9.70;99.90
15184;DHT22;7693;49.266;7.104;2023-12-29T17:00:46;9.70;99.90
15184;DHT22;7693;49.266;7.104;2023-12-29T17:03:11;9.80;99.90
15184;DHT22;7693;49.266;7.104;2023-12-29T17:05:37;9.70;99.90
15184;DHT22;7693;49.266;7.104;2023-12-29T17:08:02;9.70;99.90
15184;DHT22;7693;49.266;7.104;2023-12-29T17:10:28;9.80;99.90
15184;DHT22;7693;49.266;7.104;2023-12-29T17:12:54;9.80;99.90
15184;DHT22;7693;49.266;7.104;2023-12-29T17:15:19;9.80;99.90
15184;DHT22;7693;49.266;7.104;2023-12-29T17:17:47;9.80;99.90
15184;DHT22;7693;49.266;7.104;2023-12-29T17:20:12;9.80;99.90
15184;DHT22;7693;49.266;7.104;2023-12-29T17:22:38;9.70;99.90
15184;DHT22;7693;49.266;7.104;2023-12-29T17:25:04;9.70;99.90
15184;DHT22;7693;49.266;7.104;2023-12-29T17:27:30;9.80;99.90
15184;DHT22;7693;49.266;7.104;2023-12-29T17:29:55;9.70;99.90
15184;DHT22;7693;49.266;7.104;2023-12-29T17:32:21;9.70;99.90
15184;DHT22;7693;49.266;7.104;2023-12-29T17:34:49;9.70;99.90
15184;DHT22;7693;49.266;7.104;2023-12-29T17:37:14;9.80;99.90
15184;DHT22;7693;49.266;7.104;2023-12-29T17:39:40;9.70;99.90
15184;DHT22;7693;49.266;7.104;2023-12-29T17:42:06;9.80;99.90
15184;DHT22;7693;49.266;7.104;2023-12-29T17:44:39;9.70;99.90
15184;DHT22;7693;49.266;7.104;2023-12-29T17:47:04;9.80;99.90
15184;DHT22;7693;49.266;7.104;2023-12-29T17:49:30;9.80;99.90
15184;DHT22;7693;49.266;7.104;2023-12-29T17:51:56;9.80;99.90
15184;DHT22;7693;49.266;7.104;2023-12-29T17:54:25;9.80;99.90
15184;DHT22;7693;49.266;7.104;2023-12-29T17:56:51;9.80;99.90
15184;DHT22;7693;49.266;7.104;2023-12-29T17:59:17;9.70;99.90
15184;DHT22;7693;49.266;7.104;2023-12-29T18:01:50;9.80;99.90
15184;DHT22;7693;49.266;7.104;2023-12-29T18:04:17;9.80;99.90
15184;DHT22;7693;49.266;7.104;2023-12-29T18:06:43;9.70;99.90
15184;DHT22;7693;49.266;7.104;2023-12-29T18:09:09;9.80;99.90
15184;DHT22;7693;49.266;7.104;2023-12-29T18:11:37;9.80;99.90
15184;DHT22;7693;49.266;7.104;2023-12-29T18:14:03;9.80;99.90
15184;DHT22;7693;49.266;7.104;2023-12-29T18:16:29;9.80;99.90
15184;DHT22;7693;49.266;7.104;2023-12-29T18:18:56;9.80;99.90
15184;DHT22;7693;49.266;7.104;2023-12-29T18:21:22;9.80;99.90
15184;DHT22;7693;49.266;7.104;2023-12-29T18:23:47;9.80;99.90
15184;DHT22;7693;49.266;7.104;2023-12-29T18:26:13;9.80;99.90
15184;DHT22;7693;49.266;7.104;2023-12-29T18:28:39;9.80;99.90
15184;DHT22;7693;49.266;7.104;2023-12-29T18:31:05;9.80;99.90
15184;DHT22;7693;49.266;7.104;2023-12-29T18:33:31;9.70;99.90
15184;DHT22;7693;49.266;7.104;2023-12-29T18:36:02;9.80;99.90
15184;DHT22;7693;49.266;7.104;2023-12-29T18:38:28;9.70;99.90
15184;DHT22;7693;49.266;7.104;2023-12-29T18:40:54;9.70;99.90
15184;DHT22;7693;49.266;7.104;2023-12-29T18:43:19;9.80;99.90
15184;DHT22;7693;49.266;7.104;2023-12-29T18:45:45;9.80;99.90
15184;DHT22;7693;49.266;7.104;2023-12-29T18:48:11;9.80;99.90
15184;DHT22;7693;49.266;7.104;2023-12-29T18:50:36;9.80;99.90
15184;DHT22;7693;49.266;7.104;2023-12-29T18:53:02;9.80;99.90
15184;DHT22;7693;49.266;7.104;2023-12-29T18:55:29;9.80;99.90
15184;DHT22;7693;49.266;7.104;2023-12-29T18:57:55;9.70;99.90
15184;DHT22;7693;49.266;7.104;2023-12-29T19:00:21;9.70;99.90
15184;DHT22;7693;49.266;7.104;2023-12-29T19:02:47;9.70;99.90
15184;DHT22;7693;49.266;7.104;2023-12-29T19:05:12;9.70;99.90
15184;DHT22;7693;49.266;7.104;2023-12-29T19:07:38;9.70;99.90
15184;DHT22;7693;49.266;7.104;2023-12-29T19:10:04;9.70;99.90
15184;DHT22;7693;49.266;7.104;2023-12-29T19:12:30;9.70;99.90
15184;DHT22;7693;49.266;7.104;2023-12-29T19:14:55;9.60;99.90
15184;DHT22;7693;49.266;7.104;2023-12-29T19:17:21;9.60;99.90
15184;DHT22;7693;49.266;7.104;2023-12-29T19:19:48;9.50;99.90
15184;DHT22;7693;49.266;7.104;2023-12-29T19:22:14;9.50;99.90
15184;DHT22;7693;49.266;7.104;2023-12-29T19:24:40;9.50;99.90
15184;DHT22;7693;49.266;7.104;2023-12-29T19:27:07;9.50;99.90
15184;DHT22;7693;49.266;7.104;2023-12-29T19:29:33;9.50;99.90
15184;DHT22;7693;49.266;7.104;2023-12-29T19:31:58;9.50;99.90
15184;DHT22;7693;49.266;7.104;2023-12-29T19:34:24;9.50;99.90
15184;DHT22;7693;49.266;7.104;2023-12-29T19:36:50;9.50;99.90
15184;DHT22;7693;49.266;7.104;2023-12-29T19:39:15;9.50;99.90
15184;DHT22;7693;49.266;7.104;2023-12-29T19:41:41;9.50;99.90
15184;DHT22;7693;49.266;7.104;2023-12-29T19:44:07;9.50;99.90
15184;DHT22;7693;49.266;7.104;2023-12-29T19:46:33;9.50;99.90
15184;DHT22;7693;49.266;7.104;2023-12-29T19:49:04;9.50;99.90
15184;DHT22;7693;49.266;7.104;2023-12-29T19:51:30;9.60;99.90
15184;DHT22;7693;49.266;7.104;2023-12-29T19:53:55;9.60;99.90
15184;DHT22;7693;49.266;7.104;2023-12-29T19:56:25;9.60;99.90
15184;DHT22;7693;49.266;7.104;2023-12-29T19:58:53;9.60;99.90
15184;DHT22;7693;49.266;7.104;2023-12-29T20:01:20;9.60;99.90
15184;DHT22;7693;49.266;7.104;2023-12-29T20:03:46;9.60;99.90
15184;DHT22;7693;49.266;7.104;2023-12-29T20:06:23;9.60;99.90
15184;DHT22;7693;49.266;7.104;2023-12-29T20:08:49;9.60;99.90
15184;DHT22;7693;49.266;7.104;2023-12-29T20:11:16;9.60;99.90
15184;DHT22;7693;49.266;7.104;2023-12-29T20:13:41;9.60;99.90
15184;DHT22;7693;49.266;7.104;2023-12-29T20:16:07;9.70;99.90
15184;DHT22;7693;49.266;7.104;2023-12-29T20:18:34;9.60;99.90
15184;DHT22;7693;49.266;7.104;2023-12-29T20:21:00;9.70;99.90
15184;DHT22;7693;49.266;7.104;2023-12-29T20:23:27;9.70;99.90
15184;DHT22;7693;49.266;7.104;2023-12-29T20:25:53;9.70;99.90
15184;DHT22;7693;49.266;7.104;2023-12-29T20:28:22;9.70;99.90
15184;DHT22;7693;49.266;7.104;2023-12-29T20:30:47;9.70;99.90
15184;DHT22;7693;49.266;7.104;2023-12-29T20:33:13;9.70;99.90
15184;DHT22;7693;49.266;7.104;2023-12-29T20:35:39;9.70;99.90
15184;DHT22;7693;49.266;7.104;2023-12-29T20:38:07;9.70;99.90
15184;DHT22;7693;49.266;7.104;2023-12-29T20:40:33;9.70;99.90
15184;DHT22;7693;49.266;7.104;2023-12-29T20:42:58;9.70;99.90
15184;DHT22;7693;49.266;7.104;2023-12-29T20:45:24;9.70;99.90
15184;DHT22;7693;49.266;7.104;2023-12-29T20:47:50;9.70;99.90
15184;DHT22;7693;49.266;7.104;2023-12-29T20:50:15;9.70;99.90
15184;DHT22;7693;49.266;7.104;2023-12-29T20:52:41;9.80;99.90
15184;DHT22;7693;49.266;7.104;2023-12-29T20:55:07;9.80;99.90
15184;DHT22;7693;49.266;7.104;2023-12-29T20:57:32;9.80;99.90
15184;DHT22;7693;49.266;7.104;2023-12-29T20:59:58;9.80;99.90
15184;DHT22;7693;49.266;7.104;2023-12-29T21:02:26;9.70;99.90
15184;DHT22;7693;49.266;7.104;2023-12-29T21:04:51;9.80;99.90
15184;DHT22;7693;49.266;7.104;2023-12-29T21:07:17;9.80;99.90
15184;DHT22;7693;49.266;7.104;2023-12-29T21:09:43;9.80;99.90
15184;DHT22;7693;49.266;7.104;2023-12-29T21:12:08;9.80;99.90
15184;DHT22;7693;49.266;7.104;2023-12-29T21:14:36;9.80;99.90
15184;DHT22;7693;49.266;7.104;2023-12-29T21:17:01;9.80;99.90
15184;DHT22;7693;49.266;7.104;2023-12-29T21:19:28;9.70;99.90
15184;DHT22;7693;49.266;7.104;2023-12-29T21:21:54;9.70;99.90
15184;DHT22;7693;49.266;7.104;2023-12-29T21:24:19;9.70;99.90
15184;DHT22;7693;49.266;7.104;2023-12-29T21:26:45;9.60;99.90
15184;DHT22;7693;49.266;7.104;2023-12-29T21:29:11;9.60;99.90
15184;DHT22;7693;49.266;7.104;2023-12-29T21:31:36;9.50;99.90
15184;DHT22;7693;49.266;7.104;2023-12-29T21:34:02;9.50;99.90
15184;DHT22;7693;49.266;7.104;2023-12-29T21:36:29;9.40;99.90
15184;DHT22;7693;49.266;7.104;2023-12-29T21:38:56;9.50;99.90
15184;DHT22;7693;49.266;7.104;2023-12-29T21:41:22;9.40;99.90
15184;DHT22;7693;49.266;7.104;2023-12-29T21:43:47;9.40;99.90
15184;DHT22;7693;49.266;7.104;2023-12-29T21:46:13;9.40;99.90
15184;DHT22;7693;49.266;7.104;2023-12-29T21:48:39;9.40;99.90
15184;DHT22;7693;49.266;7.104;2023-12-29T21:51:09;9.40;99.90
15184;DHT22;7693;49.266;7.104;2023-12-29T21:53:35;9.40;99.90
15184;DHT22;7693;49.266;7.104;2023-12-29T21:56:02;9.50;99.90
15184;DHT22;7693;49.266;7.104;2023-12-29T21:58:29;9.40;99.90
15184;DHT22;7693;49.266;7.104;2023-12-29T22:00:56;9.40;99.90
15184;DHT22;7693;49.266;7.104;2023-12-29T22:03:24;9.50;99.90
15184;DHT22;7693;49.266;7.104;2023-12-29T22:05:49;9.50;99.90
15184;DHT22;7693;49.266;7.104;2023-12-29T22:08:15;9.50;99.90
15184;DHT22;7693;49.266;7.104;2023-12-29T22:10:41;9.50;99.90
15184;DHT22;7693;49.266;7.104;2023-12-29T22:13:07;9.50;99.90
15184;DHT22;7693;49.266;7.104;2023-12-29T22:15:33;9.50;99.90
15184;DHT22;7693;49.266;7.104;2023-12-29T22:17:58;9.50;99.90
15184;DHT22;7693;49.266;7.104;2023-12-29T22:20:25;9.50;99.90
15184;DHT22;7693;49.266;7.104;2023-12-29T22:22:51;9.50;99.90
15184;DHT22;7693;49.266;7.104;2023-12-29T22:25:18;9.50;99.90
15184;DHT22;7693;49.266;7.104;2023-12-29T22:27:44;9.50;99.90
15184;DHT22;7693;49.266;7.104;2023-12-29T22:30:09;9.50;99.90
15184;DHT22;7693;49.266;7.104;2023-12-29T22:32:37;9.50;99.90
15184;DHT22;7693;49.266;7.104;2023-12-29T22:35:03;9.50;99.90
15184;DHT22;7693;49.266;7.104;2023-12-29T22:37:28;9.50;99.90
15184;DHT22;7693;49.266;7.104;2023-12-29T22:39:54;9.50;99.90
15184;DHT22;7693;49.266;7.104;2023-12-29T22:42:19;9.50;99.90
15184;DHT22;7693;49.266;7.104;2023-12-29T22:44:45;9.50;99.90
15184;DHT22;7693;49.266;7.104;2023-12-29T22:47:11;9.60;99.90
15184;DHT22;7693;49.266;7.104;2023-12-29T22:49:36;9.60;99.90
15184;DHT22;7693;49.266;7.104;2023-12-29T22:52:05;9.60;99.90
15184;DHT22;7693;49.266;7.104;2023-12-29T22:54:31;9.60;99.90
15184;DHT22;7693;49.266;7.104;2023-12-29T22:56:57;9.60;99.90
15184;DHT22;7693;49.266;7.104;2023-12-29T22:59:22;9.50;99.90
15184;DHT22;7693;49.266;7.104;2023-12-29T23:01:48;9.50;99.90
15184;DHT22;7693;49.266;7.104;2023-12-29T23:04:17;9.40;99.90
15184;DHT22;7693;49.266;7.104;2023-12-29T23:06:42;9.30;99.90
15184;DHT22;7693;49.266;7.104;2023-12-29T23:09:09;9.30;99.90
15184;DHT22;7693;49.266;7.104;2023-12-29T23:11:35;9.20;99.90
